KHKA/HKA METAR and TAF weather

Enter ICAO airport designator
Station Type Date Time Source
KHKA METAR 2019/10/23 01:53 UTC NOAA

KHKA 230153Z AUTO 24005KT 10SM CLR 13/04 A3007 RMK AO2 SLP184 T01280044 $


Station Type Date Time Source
KHKA Decoded METAR 2019/10/23 01:53 UTC NOAA

BLYTHEVILLE MUNICIPAL AIRPORT , AR, United States (KHKA) 35-56N 89-50W 78M
Oct 22, 2019 - 09:53 PM EDT / 2019.10.23 0153 UTC
Wind: from the WSW (240 degrees) at 6 MPH (5 KT):0
Visibility: 10 mile(s):0
Sky conditions: clear
Temperature: 55.0 F (12.8 C)
Dew Point: 39.9 F (4.4 C)
Relative Humidity: 56%
Pressure (altimeter): 30.07 in. Hg (1018 hPa)
ob: KHKA 230153Z AUTO 24005KT 10SM CLR 13/04 A3007 RMK AO2 SLP184 T01280044
cycle: 2

Station Type Date Time Source
KHKA TAF UTC NOAA

Error!

Example: see airport list